Terminal Aerodrome Forecast
Issued by NWS

Home | Current Version | Previous Version | Text Only | Print | Product List | Glossary Off
Versions: 1 2 3 4 5 6 7 8 9 10 11 12 13 14 15 16 17 18 19 20

000
FTUS43 KABR 281900 AAA
TAFMBG
TAF AMD
KMBG 281918Z 2819/0118 31012KT P6SM BKN060
     FM010000 VRB04KT P6SM BKN250
     FM011300 30008KT P6SM OVC050=

USA.gov is the U.S. government's official web portal to all federal, state and local government web resources and services.